sensor_id;sensor_type;location;lat;lon;timestamp;pressure;altitude;pressure_sealevel;temperature;humidity
20656;BME280;10487;53.320;8.672;2023-04-26T00:01:02;101331.88;;;2.42;51.63
20656;BME280;10487;53.320;8.672;2023-04-26T00:04:04;101327.53;;;2.41;51.70
20656;BME280;10487;53.320;8.672;2023-04-26T00:07:06;101318.78;;;2.41;51.53
20656;BME280;10487;53.320;8.672;2023-04-26T00:10:08;101328.44;;;2.40;51.93
20656;BME280;10487;53.320;8.672;2023-04-26T00:13:11;101331.13;;;2.39;51.93
20656;BME280;10487;53.320;8.672;2023-04-26T00:16:12;101335.53;;;2.38;51.90
20656;BME280;10487;53.320;8.672;2023-04-26T00:19:15;101334.75;;;2.35;51.57
20656;BME280;10487;53.320;8.672;2023-04-26T00:22:17;101326.03;;;2.33;51.92
20656;BME280;10487;53.320;8.672;2023-04-26T00:25:18;101328.72;;;2.31;51.62
20656;BME280;10487;53.320;8.672;2023-04-26T00:28:20;101329.59;;;2.32;51.72
20656;BME280;10487;53.320;8.672;2023-04-26T00:31:22;101332.22;;;2.32;52.13
20656;BME280;10487;53.320;8.672;2023-04-26T00:34:23;101333.91;;;2.34;51.85
20656;BME280;10487;53.320;8.672;2023-04-26T00:37:25;101347.09;;;2.34;51.70
20656;BME280;10487;53.320;8.672;2023-04-26T00:40:27;101344.44;;;2.34;52.18
20656;BME280;10487;53.320;8.672;2023-04-26T00:43:28;101338.31;;;2.34;52.01
20656;BME280;10487;53.320;8.672;2023-04-26T00:46:30;101344.47;;;2.33;51.96
20656;BME280;10487;53.320;8.672;2023-04-26T00:49:32;101338.31;;;2.34;51.76
20656;BME280;10487;53.320;8.672;2023-04-26T00:52:34;101337.44;;;2.33;51.91
20656;BME280;10487;53.320;8.672;2023-04-26T00:55:36;101341.84;;;2.33;52.15
20656;BME280;10487;53.320;8.672;2023-04-26T00:58:37;101334.81;;;2.33;52.15
20656;BME280;10487;53.320;8.672;2023-04-26T01:01:39;101345.25;;;2.36;51.87
20656;BME280;10487;53.320;8.672;2023-04-26T01:04:42;101348.75;;;2.37;52.02
20656;BME280;10487;53.320;8.672;2023-04-26T01:07:45;101348.69;;;2.38;52.12
20656;BME280;10487;53.320;8.672;2023-04-26T01:10:48;101337.22;;;2.41;52.00
20656;BME280;10487;53.320;8.672;2023-04-26T01:13:50;101333.63;;;2.43;52.20
20656;BME280;10487;53.320;8.672;2023-04-26T01:16:51;101334.38;;;2.47;52.36
20656;BME280;10487;53.320;8.672;2023-04-26T01:19:53;101344.81;;;2.50;52.06
20656;BME280;10487;53.320;8.672;2023-04-26T01:22:55;101337.72;;;2.52;52.07
20656;BME280;10487;53.320;8.672;2023-04-26T01:25:58;101339.47;;;2.53;51.93
20656;BME280;10487;53.320;8.672;2023-04-26T01:28:59;101341.22;;;2.52;51.99
20656;BME280;10487;53.320;8.672;2023-04-26T01:32:02;101346.50;;;2.52;52.28
20656;BME280;10487;53.320;8.672;2023-04-26T01:35:04;101345.63;;;2.52;52.15
20656;BME280;10487;53.320;8.672;2023-04-26T01:38:06;101341.28;;;2.51;52.20
20656;BME280;10487;53.320;8.672;2023-04-26T01:41:08;101348.41;;;2.47;52.25
20656;BME280;10487;53.320;8.672;2023-04-26T01:44:10;101351.13;;;2.44;51.84
20656;BME280;10487;53.320;8.672;2023-04-26T01:47:11;101354.78;;;2.40;52.18
20656;BME280;10487;53.320;8.672;2023-04-26T01:50:13;101353.97;;;2.38;52.33
20656;BME280;10487;53.320;8.672;2023-04-26T01:53:14;101359.31;;;2.35;52.02
20656;BME280;10487;53.320;8.672;2023-04-26T01:56:16;101359.38;;;2.34;52.35
20656;BME280;10487;53.320;8.672;2023-04-26T01:59:18;101347.97;;;2.33;52.35
20656;BME280;10487;53.320;8.672;2023-04-26T02:02:20;101347.97;;;2.33;52.15
20656;BME280;10487;53.320;8.672;2023-04-26T02:05:22;101343.66;;;2.31;52.47
20656;BME280;10487;53.320;8.672;2023-04-26T02:08:24;101344.63;;;2.28;52.08
20656;BME280;10487;53.320;8.672;2023-04-26T02:11:26;101348.19;;;2.26;52.46
20656;BME280;10487;53.320;8.672;2023-04-26T02:14:27;101349.16;;;2.23;52.14
20656;BME280;10487;53.320;8.672;2023-04-26T02:17:29;101349.22;;;2.22;52.15
20656;BME280;10487;53.320;8.672;2023-04-26T02:20:31;101348.34;;;2.21;52.50
20656;BME280;10487;53.320;8.672;2023-04-26T02:23:33;101345.72;;;2.21;52.26
20656;BME280;10487;53.320;8.672;2023-04-26T02:26:34;101347.53;;;2.19;52.44
20656;BME280;10487;53.320;8.672;2023-04-26T02:29:36;101351.06;;;2.18;52.29
20656;BME280;10487;53.320;8.672;2023-04-26T02:32:45;101363.34;;;2.19;52.26
20656;BME280;10487;53.320;8.672;2023-04-26T02:35:47;101371.25;;;2.17;52.36
20656;BME280;10487;53.320;8.672;2023-04-26T02:38:48;101374.75;;;2.18;52.15
20656;BME280;10487;53.320;8.672;2023-04-26T02:41:50;101373.88;;;2.17;52.24
20656;BME280;10487;53.320;8.672;2023-04-26T02:44:51;101382.59;;;2.19;52.51
20656;BME280;10487;53.320;8.672;2023-04-26T02:47:53;101379.03;;;2.22;52.58
20656;BME280;10487;53.320;8.672;2023-04-26T02:50:55;101373.72;;;2.24;52.49
20656;BME280;10487;53.320;8.672;2023-04-26T02:53:57;101364.00;;;2.26;52.48
20656;BME280;10487;53.320;8.672;2023-04-26T02:56:59;101359.59;;;2.26;52.46
20656;BME280;10487;53.320;8.672;2023-04-26T03:00:01;101361.31;;;2.27;52.28
20656;BME280;10487;53.320;8.672;2023-04-26T03:03:03;101363.06;;;2.28;52.60
20656;BME280;10487;53.320;8.672;2023-04-26T03:06:06;101370.88;;;2.30;52.25
20656;BME280;10487;53.320;8.672;2023-04-26T03:09:07;101359.53;;;2.29;52.44
20656;BME280;10487;53.320;8.672;2023-04-26T03:12:09;101359.47;;;2.31;52.27
20656;BME280;10487;53.320;8.672;2023-04-26T03:15:11;101356.84;;;2.31;52.30
20656;BME280;10487;53.320;8.672;2023-04-26T03:18:13;101359.47;;;2.31;52.40
20656;BME280;10487;53.320;8.672;2023-04-26T03:21:14;101358.59;;;2.30;52.70
20656;BME280;10487;53.320;8.672;2023-04-26T03:24:16;101360.34;;;2.30;52.40
20656;BME280;10487;53.320;8.672;2023-04-26T03:27:18;101357.72;;;2.30;52.61
20656;BME280;10487;53.320;8.672;2023-04-26T03:30:19;101356.91;;;2.28;52.50
20656;BME280;10487;53.320;8.672;2023-04-26T03:33:21;101352.56;;;2.27;52.38
20656;BME280;10487;53.320;8.672;2023-04-26T03:36:23;101353.53;;;2.24;52.70
20656;BME280;10487;53.320;8.672;2023-04-26T03:39:24;101362.38;;;2.22;52.56
20656;BME280;10487;53.320;8.672;2023-04-26T03:42:26;101361.53;;;2.19;52.37
20656;BME280;10487;53.320;8.672;2023-04-26T03:45:27;101356.34;;;2.18;52.47
20656;BME280;10487;53.320;8.672;2023-04-26T03:48:29;101349.38;;;2.15;52.93
20656;BME280;10487;53.320;8.672;2023-04-26T03:51:31;101345.97;;;2.12;52.54
20656;BME280;10487;53.320;8.672;2023-04-26T03:54:35;101351.34;;;2.09;52.52
20656;BME280;10487;53.320;8.672;2023-04-26T03:57:37;101345.28;;;2.05;52.66
20656;BME280;10487;53.320;8.672;2023-04-26T04:00:39;101352.44;;;2.02;52.81
20656;BME280;10487;53.320;8.672;2023-04-26T04:03:44;101345.38;;;2.02;52.68
20656;BME280;10487;53.320;8.672;2023-04-26T04:06:46;101343.66;;;2.01;52.86
20656;BME280;10487;53.320;8.672;2023-04-26T04:09:48;101341.06;;;2.00;53.01
20656;BME280;10487;53.320;8.672;2023-04-26T04:12:50;101349.88;;;1.99;52.57
20656;BME280;10487;53.320;8.672;2023-04-26T04:15:52;101349.88;;;1.99;52.72
20656;BME280;10487;53.320;8.672;2023-04-26T04:18:54;101347.25;;;1.99;53.00
20656;BME280;10487;53.320;8.672;2023-04-26T04:21:55;101343.81;;;1.97;52.69
20656;BME280;10487;53.320;8.672;2023-04-26T04:24:57;101356.13;;;1.95;52.85
20656;BME280;10487;53.320;8.672;2023-04-26T04:28:03;101359.69;;;1.92;53.02
20656;BME280;10487;53.320;8.672;2023-04-26T04:31:04;101361.56;;;1.89;53.19
20656;BME280;10487;53.320;8.672;2023-04-26T04:34:06;101363.41;;;1.87;52.83
20656;BME280;10487;53.320;8.672;2023-04-26T04:37:09;101363.41;;;1.85;52.98
20656;BME280;10487;53.320;8.672;2023-04-26T04:40:11;101373.94;;;1.85;52.80
20656;BME280;10487;53.320;8.672;2023-04-26T04:43:13;101366.91;;;1.86;53.06
20656;BME280;10487;53.320;8.672;2023-04-26T04:46:15;101363.41;;;1.87;53.01
20656;BME280;10487;53.320;8.672;2023-04-26T04:49:17;101358.97;;;1.87;52.80
20656;BME280;10487;53.320;8.672;2023-04-26T04:52:19;101370.22;;;1.92;52.91
20656;BME280;10487;53.320;8.672;2023-04-26T04:55:23;101379.81;;;1.95;53.15
20656;BME280;10487;53.320;8.672;2023-04-26T04:58:25;101378.91;;;1.96;52.81
20656;BME280;10487;53.320;8.672;2023-04-26T05:01:26;101374.53;;;1.95;52.64
20656;BME280;10487;53.320;8.672;2023-04-26T05:04:28;101375.47;;;1.94;53.12
20656;BME280;10487;53.320;8.672;2023-04-26T05:07:33;101372.84;;;1.94;52.80
20656;BME280;10487;53.320;8.672;2023-04-26T05:10:34;101373.72;;;1.94;53.12
20656;BME280;10487;53.320;8.672;2023-04-26T05:13:36;101378.03;;;1.95;52.76
20656;BME280;10487;53.320;8.672;2023-04-26T05:16:38;101382.38;;;1.98;52.74
20656;BME280;10487;53.320;8.672;2023-04-26T05:19:39;101374.38;;;2.01;52.90
20656;BME280;10487;53.320;8.672;2023-04-26T05:22:41;101380.44;;;2.04;53.06
20656;BME280;10487;53.320;8.672;2023-04-26T05:25:43;101381.19;;;2.08;53.19
20656;BME280;10487;53.320;8.672;2023-04-26T05:28:45;101380.16;;;2.13;52.79
20656;BME280;10487;53.320;8.672;2023-04-26T05:31:46;101380.91;;;2.18;53.11
20656;BME280;10487;53.320;8.672;2023-04-26T05:34:48;101393.03;;;2.24;53.00
20656;BME280;10487;53.320;8.672;2023-04-26T05:37:50;101385.75;;;2.32;52.88
20656;BME280;10487;53.320;8.672;2023-04-26T05:40:52;101385.56;;;2.38;53.12
20656;BME280;10487;53.320;8.672;2023-04-26T05:43:53;101376.66;;;2.42;52.94
20656;BME280;10487;53.320;8.672;2023-04-26T05:46:55;101379.94;;;2.50;52.76
20656;BME280;10487;53.320;8.672;2023-04-26T05:49:57;101375.31;;;2.58;52.80
20656;BME280;10487;53.320;8.672;2023-04-26T05:52:58;101374.13;;;2.67;53.10
20656;BME280;10487;53.320;8.672;2023-04-26T05:56:00;101382.75;;;2.73;53.02
20656;BME280;10487;53.320;8.672;2023-04-26T05:59:02;101371.13;;;2.79;52.67
20656;BME280;10487;53.320;8.672;2023-04-26T06:02:03;101369.16;;;2.86;52.91
20656;BME280;10487;53.320;8.672;2023-04-26T06:05:05;101376.75;;;2.96;53.27
20656;BME280;10487;53.320;8.672;2023-04-26T06:08:08;101379.00;;;3.07;53.01
20656;BME280;10487;53.320;8.672;2023-04-26T06:11:10;101376.09;;;3.16;52.59
20656;BME280;10487;53.320;8.672;2023-04-26T06:14:11;101384.53;;;3.27;52.90
20656;BME280;10487;53.320;8.672;2023-04-26T06:17:30;101385.13;;;3.35;53.12
20656;BME280;10487;53.320;8.672;2023-04-26T06:20:32;101376.88;;;3.45;52.85
20656;BME280;10487;53.320;8.672;2023-04-26T06:23:33;101386.13;;;3.57;53.09
20656;BME280;10487;53.320;8.672;2023-04-26T06:26:35;101392.72;;;3.70;52.98
20656;BME280;10487;53.320;8.672;2023-04-26T06:29:36;101397.47;;;3.85;53.08
20656;BME280;10487;53.320;8.672;2023-04-26T06:32:39;101392.44;;;4.02;52.83
20656;BME280;10487;53.320;8.672;2023-04-26T06:35:41;101400.75;;;4.15;53.10
20656;BME280;10487;53.320;8.672;2023-04-26T06:38:43;101399.66;;;4.21;52.94
20656;BME280;10487;53.320;8.672;2023-04-26T06:41:45;101401.28;;;4.25;52.78
20656;BME280;10487;53.320;8.672;2023-04-26T06:44:46;101401.00;;;4.32;52.85
20656;BME280;10487;53.320;8.672;2023-04-26T06:47:50;101406.72;;;4.43;52.76
20656;BME280;10487;53.320;8.672;2023-04-26T06:50:53;101411.69;;;4.52;52.75
20656;BME280;10487;53.320;8.672;2023-04-26T06:53:55;101405.16;;;4.61;52.91
20656;BME280;10487;53.320;8.672;2023-04-26T06:56:59;101413.75;;;4.67;52.86
20656;BME280;10487;53.320;8.672;2023-04-26T07:00:02;101415.06;;;4.77;52.71
20656;BME280;10487;53.320;8.672;2023-04-26T07:03:04;101413.75;;;4.89;52.83
20656;BME280;10487;53.320;8.672;2023-04-26T07:06:06;101422.41;;;4.93;52.68
20656;BME280;10487;53.320;8.672;2023-04-26T07:09:08;101417.88;;;4.96;52.74
20656;BME280;10487;53.320;8.672;2023-04-26T07:12:10;101421.31;;;4.98;52.75
20656;BME280;10487;53.320;8.672;2023-04-26T07:15:12;101415.84;;;5.03;52.68
20656;BME280;10487;53.320;8.672;2023-04-26T07:18:13;101417.50;;;5.05;52.61
20656;BME280;10487;53.320;8.672;2023-04-26T07:21:15;101417.25;;;5.11;52.67
20656;BME280;10487;53.320;8.672;2023-04-26T07:24:17;101418.88;;;5.15;52.68
20656;BME280;10487;53.320;8.672;2023-04-26T07:27:18;101417.94;;;5.38;52.99
20656;BME280;10487;53.320;8.672;2023-04-26T07:30:20;101419.31;;;5.68;52.90
20656;BME280;10487;53.320;8.672;2023-04-26T07:33:21;101418.03;;;5.77;52.62
20656;BME280;10487;53.320;8.672;2023-04-26T07:36:23;101424.81;;;5.84;52.72
20656;BME280;10487;53.320;8.672;2023-04-26T07:39:25;101425.97;;;5.97;52.70
20656;BME280;10487;53.320;8.672;2023-04-26T07:42:27;101431.16;;;6.00;52.56
20656;BME280;10487;53.320;8.672;2023-04-26T07:45:28;101426.13;;;5.94;52.57
20656;BME280;10487;53.320;8.672;2023-04-26T07:48:30;101433.25;;;5.92;52.60
20656;BME280;10487;53.320;8.672;2023-04-26T07:51:34;101441.28;;;5.90;52.52
20656;BME280;10487;53.320;8.672;2023-04-26T07:54:36;101439.44;;;5.92;52.63
20656;BME280;10487;53.320;8.672;2023-04-26T07:57:37;101444.31;;;6.01;52.63
20656;BME280;10487;53.320;8.672;2023-04-26T08:00:40;101448.09;;;6.16;52.62
20656;BME280;10487;53.320;8.672;2023-04-26T08:03:41;101440.59;;;6.26;52.54
20656;BME280;10487;53.320;8.672;2023-04-26T08:06:44;101442.19;;;6.30;52.40
20656;BME280;10487;53.320;8.672;2023-04-26T08:09:48;101446.06;;;6.41;52.34
20656;BME280;10487;53.320;8.672;2023-04-26T08:12:50;101439.28;;;6.54;52.30
20656;BME280;10487;53.320;8.672;2023-04-26T08:15:52;101441.56;;;6.62;52.37
20656;BME280;10487;53.320;8.672;2023-04-26T08:18:54;101440.50;;;6.66;52.17
20656;BME280;10487;53.320;8.672;2023-04-26T08:21:56;101447.59;;;6.65;52.14
20656;BME280;10487;53.320;8.672;2023-04-26T08:24:57;101453.19;;;6.59;52.07
20656;BME280;10487;53.320;8.672;2023-04-26T08:27:59;101465.13;;;6.49;52.33
20656;BME280;10487;53.320;8.672;2023-04-26T08:31:02;101450.78;;;6.35;52.12
20656;BME280;10487;53.320;8.672;2023-04-26T08:34:04;101465.47;;;6.23;52.14
20656;BME280;10487;53.320;8.672;2023-04-26T08:37:06;101462.28;;;6.15;52.35
20656;BME280;10487;53.320;8.672;2023-04-26T08:40:08;101467.78;;;6.11;52.30
20656;BME280;10487;53.320;8.672;2023-04-26T08:43:10;101466.84;;;6.12;52.26
20656;BME280;10487;53.320;8.672;2023-04-26T08:46:18;101470.88;;;6.20;52.37
20656;BME280;10487;53.320;8.672;2023-04-26T08:49:38;101463.78;;;6.41;52.42
20656;BME280;10487;53.320;8.672;2023-04-26T08:52:42;101469.22;;;6.56;52.48
20656;BME280;10487;53.320;8.672;2023-04-26T08:55:48;101467.84;;;6.68;52.21
20656;BME280;10487;53.320;8.672;2023-04-26T08:58:50;101471.00;;;6.76;52.19
20656;BME280;10487;53.320;8.672;2023-04-26T09:01:52;101481.56;;;6.78;52.06
20656;BME280;10487;53.320;8.672;2023-04-26T09:04:54;101479.16;;;6.72;51.91
20656;BME280;10487;53.320;8.672;2023-04-26T09:07:59;101482.31;;;6.61;51.94
20656;BME280;10487;53.320;8.672;2023-04-26T09:11:02;101487.13;;;6.51;52.27
20656;BME280;10487;53.320;8.672;2023-04-26T09:14:04;101486.50;;;6.85;52.41
20656;BME280;10487;53.320;8.672;2023-04-26T09:17:32;101483.31;;;6.96;52.07
20656;BME280;10487;53.320;8.672;2023-04-26T09:20:34;101482.19;;;6.83;52.20
20656;BME280;10487;53.320;8.672;2023-04-26T09:23:55;101480.16;;;6.69;52.22
20656;BME280;10487;53.320;8.672;2023-04-26T09:27:03;101481.28;;;6.63;52.28
20656;BME280;10487;53.320;8.672;2023-04-26T09:33:13;101478.91;;;6.78;52.53
20656;BME280;10487;53.320;8.672;2023-04-26T09:36:15;101475.75;;;6.88;52.34
20656;BME280;10487;53.320;8.672;2023-04-26T09:39:35;101473.78;;;6.92;52.24
20656;BME280;10487;53.320;8.672;2023-04-26T09:42:37;101480.97;;;6.90;52.23
20656;BME280;10487;53.320;8.672;2023-04-26T09:46:05;101486.50;;;6.85;52.05
20656;BME280;10487;53.320;8.672;2023-04-26T09:49:07;101483.91;;;6.84;52.32
20656;BME280;10487;53.320;8.672;2023-04-26T09:52:09;101485.84;;;6.99;52.36
20656;BME280;10487;53.320;8.672;2023-04-26T09:55:18;101471.41;;;7.23;52.23
20656;BME280;10487;53.320;8.672;2023-04-26T09:58:31;101478.31;;;7.44;51.96
20656;BME280;10487;53.320;8.672;2023-04-26T10:01:33;101476.78;;;7.57;52.18
20656;BME280;10487;53.320;8.672;2023-04-26T10:04:35;101480.78;;;7.66;51.81
20656;BME280;10487;53.320;8.672;2023-04-26T10:07:38;101488.69;;;7.67;52.04
20656;BME280;10487;53.320;8.672;2023-04-26T10:10:42;101494.16;;;7.64;51.69
20656;BME280;10487;53.320;8.672;2023-04-26T10:13:44;101510.84;;;7.49;51.78
20656;BME280;10487;53.320;8.672;2023-04-26T10:16:46;101518.38;;;7.21;51.63
20656;BME280;10487;53.320;8.672;2023-04-26T10:19:52;101525.94;;;6.93;51.77
20656;BME280;10487;53.320;8.672;2023-04-26T10:22:58;101524.38;;;6.68;51.88
20656;BME280;10487;53.320;8.672;2023-04-26T10:26:03;101508.34;;;6.51;52.08
20656;BME280;10487;53.320;8.672;2023-04-26T10:29:05;101505.47;;;6.37;52.28
20656;BME280;10487;53.320;8.672;2023-04-26T10:32:07;101499.63;;;6.29;52.25
20656;BME280;10487;53.320;8.672;2023-04-26T10:35:11;101496.31;;;6.24;52.22
20656;BME280;10487;53.320;8.672;2023-04-26T10:38:14;101486.78;;;6.20;52.22
20656;BME280;10487;53.320;8.672;2023-04-26T10:41:35;101484.13;;;6.20;52.33
20656;BME280;10487;53.320;8.672;2023-04-26T10:44:40;101477.91;;;6.21;52.33
20656;BME280;10487;53.320;8.672;2023-04-26T10:47:42;101487.44;;;6.25;52.32
20656;BME280;10487;53.320;8.672;2023-04-26T10:54:09;101482.50;;;6.36;52.19
20656;BME280;10487;53.320;8.672;2023-04-26T10:57:10;101482.16;;;6.44;52.34
20656;BME280;10487;53.320;8.672;2023-04-26T11:00:16;101475.47;;;6.55;52.12
20656;BME280;10487;53.320;8.672;2023-04-26T11:03:21;101480.16;;;6.69;52.20
20656;BME280;10487;53.320;8.672;2023-04-26T11:06:24;101470.44;;;6.88;52.19
20656;BME280;10487;53.320;8.672;2023-04-26T11:09:36;101460.59;;;7.09;52.21
20656;BME280;10487;53.320;8.672;2023-04-26T11:12:40;101460.19;;;7.35;52.14
20656;BME280;10487;53.320;8.672;2023-04-26T11:15:42;101464.94;;;7.64;52.03
20656;BME280;10487;53.320;8.672;2023-04-26T11:18:45;101453.66;;;7.93;51.90
20656;BME280;10487;53.320;8.672;2023-04-26T11:21:47;101460.50;;;8.16;51.85
20656;BME280;10487;53.320;8.672;2023-04-26T11:24:49;101453.50;;;8.31;51.59
20656;BME280;10487;53.320;8.672;2023-04-26T11:27:52;101467.09;;;8.42;51.56
20656;BME280;10487;53.320;8.672;2023-04-26T11:30:57;101461.44;;;8.48;51.53
20656;BME280;10487;53.320;8.672;2023-04-26T11:34:05;101461.53;;;8.46;51.46
20656;BME280;10487;53.320;8.672;2023-04-26T11:37:06;101466.31;;;8.40;51.43
20656;BME280;10487;53.320;8.672;2023-04-26T11:40:09;101466.78;;;8.31;51.29
20656;BME280;10487;53.320;8.672;2023-04-26T11:43:12;101467.28;;;8.22;51.46
20656;BME280;10487;53.320;8.672;2023-04-26T11:46:14;101474.41;;;8.21;51.35
20656;BME280;10487;53.320;8.672;2023-04-26T11:49:17;101473.69;;;8.18;51.56
20656;BME280;10487;53.320;8.672;2023-04-26T11:52:18;101475.50;;;8.17;51.45
20656;BME280;10487;53.320;8.672;2023-04-26T11:55:23;101472.59;;;8.22;51.39
20656;BME280;10487;53.320;8.672;2023-04-26T11:58:28;101478.69;;;8.24;51.32
20656;BME280;10487;53.320;8.672;2023-04-26T12:01:29;101475.78;;;8.28;51.36
20656;BME280;10487;53.320;8.672;2023-04-26T12:04:31;101468.59;;;8.30;51.38
20656;BME280;10487;53.320;8.672;2023-04-26T12:07:36;101480.00;;;8.32;51.22
20656;BME280;10487;53.320;8.672;2023-04-26T12:10:38;101484.38;;;8.33;51.13
20656;BME280;10487;53.320;8.672;2023-04-26T12:13:40;101492.53;;;8.30;51.05
20656;BME280;10487;53.320;8.672;2023-04-26T12:16:41;101486.44;;;8.28;51.18
20656;BME280;10487;53.320;8.672;2023-04-26T12:19:48;101495.03;;;8.33;51.21
20656;BME280;10487;53.320;8.672;2023-04-26T12:23:11;101488.38;;;8.42;51.03
20656;BME280;10487;53.320;8.672;2023-04-26T12:26:13;101502.44;;;8.44;51.02
20656;BME280;10487;53.320;8.672;2023-04-26T12:29:15;101501.69;;;8.42;50.86
20656;BME280;10487;53.320;8.672;2023-04-26T12:32:17;101498.22;;;8.40;50.92
20656;BME280;10487;53.320;8.672;2023-04-26T12:35:23;101501.84;;;8.39;50.95
20656;BME280;10487;53.320;8.672;2023-04-26T12:38:25;101510.97;;;8.33;50.94
20656;BME280;10487;53.320;8.672;2023-04-26T12:41:27;101506.84;;;8.28;50.85
20656;BME280;10487;53.320;8.672;2023-04-26T12:44:28;101501.84;;;8.22;50.75
20656;BME280;10487;53.320;8.672;2023-04-26T12:47:30;101507.47;;;8.16;51.09
20656;BME280;10487;53.320;8.672;2023-04-26T12:50:32;101504.34;;;8.08;50.78
20656;BME280;10487;53.320;8.672;2023-04-26T12:53:34;101503.78;;;8.01;50.92
20656;BME280;10487;53.320;8.672;2023-04-26T12:56:36;101503.78;;;8.01;50.87
20656;BME280;10487;53.320;8.672;2023-04-26T12:59:43;101501.91;;;8.03;50.74
20656;BME280;10487;53.320;8.672;2023-04-26T13:02:45;101499.91;;;8.08;50.70
20656;BME280;10487;53.320;8.672;2023-04-26T13:05:47;101501.38;;;8.14;50.81
20656;BME280;10487;53.320;8.672;2023-04-26T13:08:48;101498.47;;;8.18;50.69
20656;BME280;10487;53.320;8.672;2023-04-26T13:11:50;101492.91;;;8.23;50.69
20656;BME280;10487;53.320;8.672;2023-04-26T13:14:52;101493.47;;;8.29;50.48
20656;BME280;10487;53.320;8.672;2023-04-26T13:17:54;101510.13;;;8.33;50.49
20656;BME280;10487;53.320;8.672;2023-04-26T13:20:56;101503.00;;;8.33;50.52
20656;BME280;10487;53.320;8.672;2023-04-26T13:23:57;101510.13;;;8.33;50.52
20656;BME280;10487;53.320;8.672;2023-04-26T13:26:59;101516.41;;;8.32;50.37
20656;BME280;10487;53.320;8.672;2023-04-26T13:30:02;101515.91;;;8.24;50.34
20656;BME280;10487;53.320;8.672;2023-04-26T13:33:03;101527.88;;;8.15;50.16
20656;BME280;10487;53.320;8.672;2023-04-26T13:36:05;101524.81;;;8.06;50.20
20656;BME280;10487;53.320;8.672;2023-04-26T13:39:07;101532.38;;;7.96;50.34
20656;BME280;10487;53.320;8.672;2023-04-26T13:42:09;101536.44;;;7.86;50.21
20656;BME280;10487;53.320;8.672;2023-04-26T13:45:11;101536.03;;;7.76;50.44
20656;BME280;10487;53.320;8.672;2023-04-26T13:48:13;101540.94;;;7.67;50.45
20656;BME280;10487;53.320;8.672;2023-04-26T13:51:15;101535.06;;;7.60;50.63
20656;BME280;10487;53.320;8.672;2023-04-26T13:54:17;101537.09;;;7.55;50.30
20656;BME280;10487;53.320;8.672;2023-04-26T13:57:19;101542.56;;;7.52;50.37
20656;BME280;10487;53.320;8.672;2023-04-26T14:00:22;101554.19;;;7.50;50.29
20656;BME280;10487;53.320;8.672;2023-04-26T14:03:23;101562.22;;;7.48;50.33
20656;BME280;10487;53.320;8.672;2023-04-26T14:06:25;101570.53;;;7.41;50.28
20656;BME280;10487;53.320;8.672;2023-04-26T14:09:27;101577.31;;;7.29;50.60
20656;BME280;10487;53.320;8.672;2023-04-26T14:12:29;101574.13;;;7.21;50.24
20656;BME280;10487;53.320;8.672;2023-04-26T14:15:30;101576.00;;;7.19;50.55
20656;BME280;10487;53.320;8.672;2023-04-26T14:18:32;101575.88;;;7.22;50.64
20656;BME280;10487;53.320;8.672;2023-04-26T14:21:34;101565.53;;;7.16;50.53
20656;BME280;10487;53.320;8.672;2023-04-26T14:24:35;101563.97;;;7.12;50.46
20656;BME280;10487;53.320;8.672;2023-04-26T14:27:37;101565.75;;;7.11;50.69
20656;BME280;10487;53.320;8.672;2023-04-26T14:30:39;101557.66;;;7.14;50.71
20656;BME280;10487;53.320;8.672;2023-04-26T14:33:41;101562.59;;;7.22;50.86
20656;BME280;10487;53.320;8.672;2023-04-26T14:36:43;101559.63;;;7.28;50.78
20656;BME280;10487;53.320;8.672;2023-04-26T14:39:44;101564.66;;;7.34;50.69
20656;BME280;10487;53.320;8.672;2023-04-26T14:42:46;101566.22;;;7.38;50.73
20656;BME280;10487;53.320;8.672;2023-04-26T14:45:48;101554.56;;;7.42;50.61
20656;BME280;10487;53.320;8.672;2023-04-26T14:48:49;101550.66;;;7.49;50.70
20656;BME280;10487;53.320;8.672;2023-04-26T14:51:51;101548.56;;;7.56;50.79
20656;BME280;10487;53.320;8.672;2023-04-26T14:54:54;101546.31;;;7.65;50.71
20656;BME280;10487;53.320;8.672;2023-04-26T14:57:55;101552.13;;;7.73;50.73
20656;BME280;10487;53.320;8.672;2023-04-26T15:00:57;101544.09;;;7.75;50.59
20656;BME280;10487;53.320;8.672;2023-04-26T15:03:59;101534.31;;;7.75;50.40
20656;BME280;10487;53.320;8.672;2023-04-26T15:07:02;101541.97;;;7.81;50.51
20656;BME280;10487;53.320;8.672;2023-04-26T15:10:05;101545.28;;;7.86;50.47
20656;BME280;10487;53.320;8.672;2023-04-26T15:13:08;101541.69;;;7.87;50.42
20656;BME280;10487;53.320;8.672;2023-04-26T15:16:09;101536.97;;;7.92;50.52
20656;BME280;10487;53.320;8.672;2023-04-26T15:19:11;101543.09;;;7.94;50.28
20656;BME280;10487;53.320;8.672;2023-04-26T15:22:13;101540.44;;;7.94;50.00
20656;BME280;10487;53.320;8.672;2023-04-26T15:25:14;101541.47;;;7.92;50.35
20656;BME280;10487;53.320;8.672;2023-04-26T15:28:16;101546.06;;;7.88;50.29
20656;BME280;10487;53.320;8.672;2023-04-26T15:31:19;101535.28;;;7.91;50.18
20656;BME280;10487;53.320;8.672;2023-04-26T15:34:21;101540.50;;;7.93;50.34
20656;BME280;10487;53.320;8.672;2023-04-26T15:37:24;101538.03;;;7.90;50.10
20656;BME280;10487;53.320;8.672;2023-04-26T15:40:26;101535.50;;;7.87;50.15
20656;BME280;10487;53.320;8.672;2023-04-26T15:43:28;101545.41;;;7.83;50.31
20656;BME280;10487;53.320;8.672;2023-04-26T15:46:30;101550.72;;;7.83;49.99
20656;BME280;10487;53.320;8.672;2023-04-26T15:49:31;101551.75;;;7.81;50.04
20656;BME280;10487;53.320;8.672;2023-04-26T15:52:34;101545.78;;;7.76;50.04
20656;BME280;10487;53.320;8.672;2023-04-26T15:55:40;101550.41;;;7.72;49.91
20656;BME280;10487;53.320;8.672;2023-04-26T15:58:45;101549.84;;;7.66;50.08
20656;BME280;10487;53.320;8.672;2023-04-26T16:01:47;101558.81;;;7.63;50.07
20656;BME280;10487;53.320;8.672;2023-04-26T16:04:49;101555.38;;;7.61;50.18
20656;BME280;10487;53.320;8.672;2023-04-26T16:07:51;101552.81;;;7.60;50.16
20656;BME280;10487;53.320;8.672;2023-04-26T16:10:52;101558.03;;;7.61;50.36
20656;BME280;10487;53.320;8.672;2023-04-26T16:13:54;101549.16;;;7.62;50.27